Time;durP1;ratioP1;P1;durP2;ratioP2;P2;SDS_P1;SDS_P2;PMS_P1;PMS_P2;Temp;Humidity;BMP_temperature;BMP_pressure;BME280_temperature;BME280_humidity;BME280_pressure;Samples;Min_cycle;Max_cycle;Signal;HPM_P1;HPM_P2
2021/09/12 00:01:52;;;;;;;27.45;4.72;;;;;;;16.70;76.76;101702.31;5050260;28;20033;-41
2021/09/12 00:04:17;;;;;;;28.67;5.15;;;;;;;16.65;77.20;101705.63;5052150;28;20552;-42
2021/09/12 00:06:43;;;;;;;28.95;4.75;;;;;;;16.63;77.20;101702.28;5051345;28;20064;-42
2021/09/12 00:09:08;;;;;;;22.27;4.38;;;;;;;16.58;77.36;101700.16;5052269;28;20060;-41
2021/09/12 00:11:34;;;;;;;31.92;5.00;;;;;;;16.55;77.56;101697.00;5052215;28;20483;-43
2021/09/12 00:13:59;;;;;;;28.42;5.25;;;;;;;16.53;77.78;101697.19;5052133;28;20025;-42
2021/09/12 00:16:24;;;;;;;29.50;4.43;;;;;;;16.51;77.92;101703.88;5033766;28;20043;-42
2021/09/12 00:18:50;;;;;;;25.90;5.35;;;;;;;16.48;78.43;101687.97;5051939;28;20031;-42
2021/09/12 00:21:15;;;;;;;28.35;4.93;;;;;;;16.48;78.17;101687.97;5032449;28;20045;-41
2021/09/12 00:23:40;;;;;;;23.17;4.53;;;;;;;16.42;78.55;101682.31;5030849;28;20032;-44
2021/09/12 00:26:06;;;;;;;32.75;4.93;;;;;;;16.39;78.71;101677.28;5031869;28;20029;-41
2021/09/12 00:28:31;;;;;;;27.33;5.22;;;;;;;16.40;78.77;101675.38;5030912;28;20477;-42
2021/09/12 00:30:57;;;;;;;21.85;4.95;;;;;;;16.35;79.08;101673.28;5014171;28;20068;-42
2021/09/12 00:33:22;;;;;;;23.85;4.60;;;;;;;16.32;79.12;101673.66;5030276;28;20041;-42
2021/09/12 00:35:48;;;;;;;27.77;4.90;;;;;;;16.29;79.22;101665.91;5030320;28;20465;-42
2021/09/12 00:38:13;;;;;;;17.63;4.35;;;;;;;16.30;79.35;101664.91;5030382;28;20048;-43
2021/09/12 00:40:39;;;;;;;25.23;5.07;;;;;;;16.26;79.59;101658.19;5030446;28;20024;-41
2021/09/12 00:43:04;;;;;;;31.23;5.75;;;;;;;16.23;79.65;101659.41;5043496;28;20029;-42
2021/09/12 00:45:30;;;;;;;25.55;4.90;;;;;;;16.23;79.88;101661.31;5049924;28;20040;-42
2021/09/12 00:47:56;;;;;;;34.60;5.38;;;;;;;16.22;79.90;101659.63;5049586;28;20060;-41
2021/09/12 00:50:22;;;;;;;17.98;5.07;;;;;;;16.19;80.13;101669.03;5031667;28;20041;-41
2021/09/12 00:52:48;;;;;;;25.25;4.68;;;;;;;16.19;80.13;101673.59;5030230;28;20389;-41
2021/09/12 00:55:14;;;;;;;23.98;4.93;;;;;;;16.15;80.47;101672.31;5028483;28;20047;-42
2021/09/12 00:57:43;;;;;;;26.35;5.35;;;;;;;16.17;80.70;101672.97;5029862;28;20029;-42
2021/09/12 01:00:09;;;;;;;29.48;5.97;;;;;;;16.11;80.62;101674.56;5044849;28;20035;-41
2021/09/12 01:02:34;;;;;;;20.33;6.05;;;;;;;16.12;80.68;101678.16;5049840;28;20116;-42
2021/09/12 01:04:59;;;;;;;27.08;6.72;;;;;;;16.11;80.89;101665.59;5049967;28;20128;-43
2021/09/12 01:07:24;;;;;;;27.77;6.28;;;;;;;16.02;80.85;101670.34;5048235;28;20099;-42
2021/09/12 01:09:50;;;;;;;33.75;7.07;;;;;;;16.00;81.11;101670.53;5049608;28;20031;-42
2021/09/12 01:12:17;;;;;;;30.70;5.97;;;;;;;15.96;80.94;101663.84;5050000;28;20033;-43
2021/09/12 01:14:42;;;;;;;19.65;6.55;;;;;;;15.92;80.71;101659.81;5051500;28;20029;-42
2021/09/12 01:17:08;;;;;;;25.20;7.25;;;;;;;15.86;80.56;101667.94;5049752;28;20602;-42
2021/09/12 01:19:34;;;;;;;25.27;7.15;;;;;;;15.79;80.77;101663.28;5052646;28;20040;-42
2021/09/12 01:22:02;;;;;;;33.40;7.25;;;;;;;15.76;80.85;101657.41;5041428;28;20031;-42
2021/09/12 01:24:29;;;;;;;30.00;8.18;;;;;;;15.70;80.63;101664.47;5053194;28;20028;-42
2021/09/12 01:26:54;;;;;;;26.77;7.07;;;;;;;15.64;80.76;101669.78;5049901;28;20041;-41
2021/09/12 01:29:20;;;;;;;27.75;7.35;;;;;;;15.59;80.80;101663.09;5052701;28;20033;-42
2021/09/12 01:31:45;;;;;;;25.70;9.27;;;;;;;15.53;80.98;101663.88;5051797;28;20086;-42
2021/09/12 01:34:10;;;;;;;23.08;8.02;;;;;;;15.46;81.00;101665.69;5052652;28;20044;-42
2021/09/12 01:36:36;;;;;;;27.05;8.20;;;;;;;15.40;81.10;101666.44;5052576;28;20457;-42
2021/09/12 01:39:02;;;;;;;20.98;8.00;;;;;;;15.39;81.33;101667.47;5051795;28;20104;-42
2021/09/12 01:41:28;;;;;;;33.63;8.23;;;;;;;15.38;81.04;101671.25;5052687;28;20434;-42
2021/09/12 01:43:55;;;;;;;35.58;8.00;;;;;;;15.32;81.38;101672.00;5052644;28;20521;-41
2021/09/12 01:46:21;;;;;;;30.77;7.50;;;;;;;15.32;81.17;101672.00;5040755;28;20398;-43
2021/09/12 01:48:47;;;;;;;25.42;8.07;;;;;;;15.25;81.29;101674.66;5032660;28;20314;-42
2021/09/12 01:51:13;;;;;;;31.35;8.38;;;;;;;15.24;81.49;101670.25;5032636;28;20405;-42
2021/09/12 01:53:39;;;;;;;28.85;8.18;;;;;;;15.26;81.46;101670.06;5034127;28;20029;-41
2021/09/12 01:56:04;;;;;;;23.48;8.20;;;;;;;15.26;81.35;101661.91;5051631;28;20151;-42
2021/09/12 01:58:30;;;;;;;30.25;8.48;;;;;;;15.20;81.31;101668.13;5052415;28;20029;-42
2021/09/12 02:00:56;;;;;;;39.28;8.10;;;;;;;15.18;81.49;101667.47;5042574;28;20071;-42
2021/09/12 02:03:21;;;;;;;25.45;8.45;;;;;;;15.13;81.60;101662.63;5052269;28;20037;-42
2021/09/12 02:05:47;;;;;;;45.63;9.45;;;;;;;15.11;81.63;101659.25;5052258;28;20040;-43
2021/09/12 02:08:12;;;;;;;31.85;9.30;;;;;;;15.09;81.68;101666.75;5046020;28;20152;-42
2021/09/12 02:10:37;;;;;;;24.23;9.02;;;;;;;15.04;81.71;101675.47;5036674;28;20041;-42
2021/09/12 02:13:03;;;;;;;31.30;10.75;;;;;;;14.95;82.06;101673.88;5036611;28;20378;-41
2021/09/12 02:15:28;;;;;;;33.30;10.68;;;;;;;14.92;82.32;101671.56;5040065;28;20025;-42
2021/09/12 02:17:53;;;;;;;28.75;10.52;;;;;;;14.93;82.35;101673.25;5055006;28;20044;-43
2021/09/12 02:20:19;;;;;;;36.25;11.38;;;;;;;14.88;82.36;101668.41;5056047;28;20029;-42
2021/09/12 02:22:44;;;;;;;34.25;11.10;;;;;;;14.85;82.59;101667.91;5038430;28;20044;-42
2021/09/12 02:25:10;;;;;;;38.05;11.38;;;;;;;14.82;82.69;101665.59;5036310;28;20480;-42
2021/09/12 02:27:35;;;;;;;46.58;12.07;;;;;;;14.81;82.71;101669.34;5035833;28;20426;-42
2021/09/12 02:30:01;;;;;;;30.67;11.77;;;;;;;14.81;83.00;101667.47;5036199;28;20605;-42
2021/09/12 02:32:26;;;;;;;30.15;11.80;;;;;;;14.81;82.49;101669.34;5035977;28;20040;-42
2021/09/12 02:34:53;;;;;;;33.00;11.98;;;;;;;14.80;82.84;101668.50;5040005;28;20477;-42
2021/09/12 02:37:18;;;;;;;38.15;12.43;;;;;;;14.80;82.82;101670.38;5055669;28;20033;-42
2021/09/12 02:39:44;;;;;;;47.25;12.65;;;;;;;14.84;82.80;101668.94;5055988;28;20424;-42
2021/09/12 02:42:09;;;;;;;32.13;12.70;;;;;;;14.82;82.96;101666.41;5055737;28;20116;-43
2021/09/12 02:44:34;;;;;;;40.67;12.48;;;;;;;14.89;82.77;101669.22;5055616;28;20032;-41
2021/09/12 02:47:00;;;;;;;38.65;13.98;;;;;;;14.88;82.74;101670.28;5040958;28;20057;-41
2021/09/12 02:49:25;;;;;;;34.70;12.02;;;;;;;14.96;82.21;101662.03;5055551;28;20025;-42
2021/09/12 02:51:51;;;;;;;37.10;13.07;;;;;;;14.90;82.37;101668.19;5055268;28;20078;-41
2021/09/12 02:54:16;;;;;;;41.42;13.70;;;;;;;14.86;82.32;101664.19;5054925;28;20071;-42
2021/09/12 02:56:41;;;;;;;42.92;14.18;;;;;;;14.86;82.55;101661.47;5053800;28;20043;-41
2021/09/12 02:59:07;;;;;;;51.25;14.40;;;;;;;14.88;82.77;101670.28;5055401;28;20029;-42
2021/09/12 03:01:32;;;;;;;38.08;14.70;;;;;;;14.88;82.49;101667.56;5055249;28;20433;-41
2021/09/12 03:03:57;;;;;;;40.40;15.32;;;;;;;14.81;82.76;101670.19;5055333;28;20040;-42
2021/09/12 03:06:22;;;;;;;42.72;14.45;;;;;;;14.78;82.99;101670.56;5053799;28;20075;-41
2021/09/12 03:08:48;;;;;;;43.10;15.20;;;;;;;14.81;83.13;101669.34;5055377;28;20059;-43
2021/09/12 03:11:13;;;;;;;46.63;15.25;;;;;;;14.81;83.11;101669.34;5052416;28;20078;-42
2021/09/12 03:13:38;;;;;;;43.80;14.82;;;;;;;14.86;82.83;101669.63;5052755;28;20102;-41
2021/09/12 03:16:04;;;;;;;42.03;14.02;;;;;;;14.90;82.96;101668.19;5035241;28;20029;-42
2021/09/12 03:18:29;;;;;;;41.63;15.45;;;;;;;14.88;82.88;101676.53;5034890;28;20033;-42
2021/09/12 03:20:55;;;;;;;42.13;14.35;;;;;;;14.90;82.79;101673.59;5043361;28;20469;-44
2021/09/12 03:23:20;;;;;;;51.58;15.35;;;;;;;14.90;82.86;101662.75;5053612;28;20075;-42
2021/09/12 03:25:45;;;;;;;39.70;16.45;;;;;;;14.89;82.82;101663.81;5050168;28;20025;-40
2021/09/12 03:28:11;;;;;;;45.10;15.68;;;;;;;14.95;82.78;101660.31;5054801;28;20152;-42
2021/09/12 03:30:37;;;;;;;55.63;16.33;;;;;;;14.91;82.72;101669.88;5054678;28;20036;-42
2021/09/12 03:33:02;;;;;;;55.85;17.05;;;;;;;14.87;82.97;101674.81;5053700;28;20041;-43
2021/09/12 03:35:28;;;;;;;45.80;17.00;;;;;;;14.89;83.07;101671.94;5054694;28;20033;-42
2021/09/12 03:37:53;;;;;;;46.63;16.13;;;;;;;14.91;82.97;101676.13;5054675;28;20040;-43
2021/09/12 03:40:18;;;;;;;49.25;16.88;;;;;;;14.91;82.92;101683.44;5053531;28;20032;-42
2021/09/12 03:42:44;;;;;;;44.17;14.85;;;;;;;14.92;83.30;101680.50;5034334;28;20025;-42
2021/09/12 03:45:09;;;;;;;54.50;16.25;;;;;;;14.94;83.26;101677.63;5034487;28;20029;-43
2021/09/12 03:47:35;;;;;;;43.08;16.50;;;;;;;14.94;83.32;101680.34;5033520;28;20053;-42
2021/09/12 03:50:00;;;;;;;55.03;16.95;;;;;;;14.94;83.10;101677.63;5033853;28;20026;-41
2021/09/12 03:52:26;;;;;;;46.63;17.85;;;;;;;14.93;83.37;101673.25;5043048;28;20037;-42
2021/09/12 03:54:52;;;;;;;52.17;18.00;;;;;;;14.90;83.49;101676.31;5052385;28;20090;-43
2021/09/12 03:57:17;;;;;;;54.15;18.13;;;;;;;14.90;83.62;101679.03;5035951;28;20020;-42
2021/09/12 03:59:42;;;;;;;54.25;17.17;;;;;;;14.88;83.62;101670.28;5053492;28;20025;-43
2021/09/12 04:02:08;;;;;;;52.85;17.42;;;;;;;14.87;83.92;101672.13;5053242;28;20044;-42
2021/09/12 04:04:33;;;;;;;49.97;17.88;;;;;;;14.84;83.76;101672.50;5053357;28;20032;-42
2021/09/12 04:06:58;;;;;;;54.35;18.05;;;;;;;14.85;84.00;101670.63;5052632;28;20122;-42
2021/09/12 04:09:24;;;;;;;53.90;18.77;;;;;;;14.81;84.24;101670.19;5053639;28;20480;-41
2021/09/12 04:11:49;;;;;;;55.83;18.45;;;;;;;14.81;84.02;101672.06;5039628;28;20107;-42
2021/09/12 04:14:14;;;;;;;50.15;18.52;;;;;;;14.79;84.39;101676.81;5051917;28;20055;-42
2021/09/12 04:16:40;;;;;;;61.92;17.60;;;;;;;14.77;84.40;101666.19;5051413;28;20041;-42
2021/09/12 04:19:05;;;;;;;51.45;17.65;;;;;;;14.76;84.51;101671.78;5052161;28;20025;-43
2021/09/12 04:21:31;;;;;;;67.22;18.30;;;;;;;14.74;84.85;101669.25;5050693;28;20043;-41
2021/09/12 04:23:56;;;;;;;64.47;19.48;;;;;;;14.71;84.83;101667.75;5053260;28;20100;-43
2021/09/12 04:26:21;;;;;;;50.50;17.80;;;;;;;14.72;84.86;101665.91;5053309;28;20098;-42
2021/09/12 04:28:47;;;;;;;63.92;18.92;;;;;;;14.70;85.15;101659.84;5052046;28;20083;-42
2021/09/12 04:31:12;;;;;;;65.25;17.75;;;;;;;14.68;85.19;101661.88;5052090;28;20091;-42
2021/09/12 04:33:38;;;;;;;57.92;20.58;;;;;;;14.66;85.48;101659.34;5047923;28;20033;-42
2021/09/12 04:36:04;;;;;;;63.17;19.02;;;;;;;14.64;85.63;101656.00;5052345;28;20039;-43
2021/09/12 04:38:29;;;;;;;53.15;20.17;;;;;;;14.66;85.75;101653.09;5035234;28;20108;-42
2021/09/12 04:40:54;;;;;;;74.55;21.17;;;;;;;14.64;85.65;101656.00;5053087;28;20017;-41
2021/09/12 04:43:20;;;;;;;65.28;19.80;;;;;;;14.63;86.12;101654.31;5052693;28;20099;-42
2021/09/12 04:45:45;;;;;;;67.07;21.48;;;;;;;14.63;85.94;101658.91;5048078;28;20021;-42
2021/09/12 04:48:10;;;;;;;62.22;19.45;;;;;;;14.63;85.86;101662.44;5050175;28;20061;-42
2021/09/12 04:50:36;;;;;;;69.38;22.30;;;;;;;14.61;86.28;101659.09;5050641;28;20025;-42
2021/09/12 04:53:01;;;;;;;76.60;23.55;;;;;;;14.59;86.37;101661.16;5051614;28;20028;-43
2021/09/12 04:55:26;;;;;;;64.07;20.42;;;;;;;14.60;86.19;101653.84;5054135;28;20032;-42
2021/09/12 04:57:52;;;;;;;63.70;22.13;;;;;;;14.60;86.52;101664.69;5038557;28;20123;-41
2021/09/12 05:00:17;;;;;;;66.07;20.30;;;;;;;14.59;86.54;101654.91;5050105;28;20031;-42
2021/09/12 05:02:42;;;;;;;68.00;21.92;;;;;;;14.62;86.46;101663.47;5031185;28;20060;-42
2021/09/12 05:05:08;;;;;;;67.43;23.02;;;;;;;14.62;86.83;101658.06;5036105;28;20033;-42
2021/09/12 05:07:34;;;;;;;62.90;20.40;;;;;;;14.61;87.14;101659.09;5041620;28;20029;-42
2021/09/12 05:09:59;;;;;;;65.28;23.40;;;;;;;14.61;87.08;101664.53;5030581;28;20021;-42
2021/09/12 05:12:27;;;;;;;78.45;24.77;;;;;;;14.60;87.57;101657.41;5046969;28;20033;-41
2021/09/12 05:14:52;;;;;;;68.57;22.17;;;;;;;14.62;87.30;101671.59;5046485;28;20036;-41
2021/09/12 05:17:18;;;;;;;77.32;24.65;;;;;;;14.62;87.42;101670.78;5038628;28;20039;-42
2021/09/12 05:19:43;;;;;;;66.05;23.17;;;;;;;14.66;87.30;101672.91;5030882;28;20116;-43
2021/09/12 05:22:08;;;;;;;81.57;23.05;;;;;;;14.72;87.49;101679.47;5048204;28;20023;-42
2021/09/12 05:24:34;;;;;;;77.18;24.50;;;;;;;14.74;87.14;101676.53;5050423;28;20025;-42
2021/09/12 05:26:59;;;;;;;76.07;23.20;;;;;;;14.75;87.23;101673.66;5038614;28;20037;-43
2021/09/12 05:29:24;;;;;;;75.40;22.75;;;;;;;14.77;87.33;101673.44;5050258;28;20477;-42
2021/09/12 05:31:50;;;;;;;78.50;25.00;;;;;;;14.82;87.43;101679.13;5049813;28;20032;-41
2021/09/12 05:34:16;;;;;;;70.63;24.23;;;;;;;14.82;87.33;101668.28;5039581;28;20422;-41
2021/09/12 05:36:41;;;;;;;76.78;25.38;;;;;;;14.83;87.21;101672.72;5048819;28;20128;-41
2021/09/12 05:39:06;;;;;;;73.07;25.20;;;;;;;14.87;87.44;101671.28;5049060;28;20110;-41
2021/09/12 05:41:32;;;;;;;71.45;24.40;;;;;;;14.89;87.04;101682.78;5032539;28;20034;-41
2021/09/12 05:43:58;;;;;;;74.53;25.40;;;;;;;14.92;87.10;101674.25;5032752;28;20061;-41
2021/09/12 05:46:24;;;;;;;82.82;24.90;;;;;;;14.95;87.09;101682.00;5048184;28;20063;-43
2021/09/12 05:48:49;;;;;;;74.75;24.83;;;;;;;14.96;86.87;101677.44;5041526;28;20429;-43
2021/09/12 05:51:15;;;;;;;72.45;25.33;;;;;;;15.01;87.08;101680.41;5029103;28;20029;-41
2021/09/12 05:53:40;;;;;;;78.35;25.98;;;;;;;15.11;86.54;101680.94;5045436;28;20033;-42
2021/09/12 05:56:05;;;;;;;70.32;24.83;;;;;;;15.10;86.25;101690.94;5030831;28;20041;-42
2021/09/12 05:58:31;;;;;;;70.22;24.17;;;;;;;15.10;86.50;101690.13;5048838;28;20025;-42
2021/09/12 06:00:56;;;;;;;64.05;22.55;;;;;;;15.14;86.34;101694.97;5042875;28;20384;-41
2021/09/12 06:03:21;;;;;;;70.50;23.15;;;;;;;15.18;85.90;101681.03;5039804;28;20057;-42
2021/09/12 06:05:47;;;;;;;67.05;23.85;;;;;;;15.16;85.89;101692.06;5047926;28;20116;-42
2021/09/12 06:08:12;;;;;;;74.05;24.10;;;;;;;15.15;85.98;101682.25;5048495;28;20112;-43
2021/09/12 06:10:37;;;;;;;68.32;23.70;;;;;;;15.16;85.77;101694.75;5048779;28;20117;-43
2021/09/12 06:13:03;;;;;;;60.35;22.75;;;;;;;15.24;85.92;101686.50;5048898;28;20061;-41
2021/09/12 06:15:28;;;;;;;67.70;23.38;;;;;;;15.22;85.74;101694.03;5030820;28;20056;-41
2021/09/12 06:17:54;;;;;;;67.13;22.75;;;;;;;15.23;85.70;101698.41;5048886;28;20072;-43
2021/09/12 06:20:19;;;;;;;81.90;23.58;;;;;;;15.27;85.84;101696.13;5048844;28;20025;-41
2021/09/12 06:22:46;;;;;;;56.28;22.27;;;;;;;15.35;85.41;101688.75;5048609;28;20029;-41
2021/09/12 06:25:12;;;;;;;72.07;24.27;;;;;;;15.34;85.40;101687.03;5048918;28;20029;-43
2021/09/12 06:27:38;;;;;;;60.97;23.05;;;;;;;15.36;85.38;101684.97;5048744;28;20033;-41
2021/09/12 06:30:06;;;;;;;65.68;22.73;;;;;;;15.43;85.49;101695.91;5048620;28;20075;-42
2021/09/12 06:32:31;;;;;;;69.45;26.23;;;;;;;15.47;85.23;101691.75;5049278;28;20028;-42
2021/09/12 06:34:56;;;;;;;63.10;23.30;;;;;;;15.55;84.99;101699.75;5048614;28;20431;-42
2021/09/12 06:37:22;;;;;;;74.28;23.83;;;;;;;15.58;84.55;101693.94;5048819;28;20037;-41
2021/09/12 06:39:47;;;;;;;68.10;23.25;;;;;;;15.63;84.82;101698.81;5051013;28;20323;-41
2021/09/12 06:42:12;;;;;;;64.93;25.35;;;;;;;15.68;84.48;101701.78;5058535;28;20025;-43
2021/09/12 06:44:38;;;;;;;87.40;26.63;;;;;;;15.68;84.77;101700.94;5048366;28;20056;-41
2021/09/12 06:47:03;;;;;;;74.38;25.52;;;;;;;15.73;84.63;101703.94;5048544;28;20061;-41
2021/09/12 06:49:29;;;;;;;75.35;27.23;;;;;;;15.77;84.82;101697.06;5048687;28;20025;-41
2021/09/12 06:51:54;;;;;;;78.60;25.88;;;;;;;15.86;84.34;101706.78;5048546;28;20032;-41
2021/09/12 06:54:20;;;;;;;78.85;27.15;;;;;;;15.84;84.54;101706.13;5050052;28;20431;-41
2021/09/12 06:56:45;;;;;;;80.53;25.30;;;;;;;15.93;84.47;101707.66;5052407;28;20451;-41
2021/09/12 06:59:10;;;;;;;92.57;27.23;;;;;;;16.03;84.20;101704.59;5052090;28;20036;-41
2021/09/12 07:01:35;;;;;;;93.03;27.52;;;;;;;16.07;84.05;101707.78;5053206;28;20032;-41
2021/09/12 07:04:01;;;;;;;88.38;29.13;;;;;;;16.08;83.72;101704.00;5052988;28;20384;-41
2021/09/12 07:06:26;;;;;;;95.25;28.95;;;;;;;16.11;84.07;101714.47;5052801;28;20040;-41
2021/09/12 07:08:51;;;;;;;71.13;27.33;;;;;;;16.14;84.06;101717.66;5053053;28;20037;-41
2021/09/12 07:11:17;;;;;;;83.40;28.10;;;;;;;16.23;83.77;101716.44;5052666;28;20025;-42
2021/09/12 07:13:42;;;;;;;95.20;27.02;;;;;;;16.40;83.57;101708.84;5052604;28;20083;-43
2021/09/12 07:16:08;;;;;;;79.85;28.05;;;;;;;16.45;83.25;101703.63;5052329;28;20112;-41
2021/09/12 07:18:33;;;;;;;94.18;29.15;;;;;;;16.50;83.11;101713.91;5051506;28;20029;-41
2021/09/12 07:20:59;;;;;;;92.68;31.67;;;;;;;16.38;83.49;101712.81;5052364;28;20088;-41
2021/09/12 07:23:24;;;;;;;89.85;30.60;;;;;;;16.43;83.46;101721.19;5053167;28;20478;-42
2021/09/12 07:25:49;;;;;;;86.13;29.00;;;;;;;16.48;83.63;101717.88;5053166;28;20108;-42
2021/09/12 07:28:15;;;;;;;93.50;29.80;;;;;;;16.56;83.43;101717.69;5054873;28;20033;-42
2021/09/12 07:30:40;;;;;;;78.88;28.33;;;;;;;16.66;83.09;101723.63;5055444;28;20033;-43
2021/09/12 07:33:05;;;;;;;92.72;29.75;;;;;;;16.73;82.88;101720.94;5054839;28;20079;-42
2021/09/12 07:35:31;;;;;;;102.93;31.30;;;;;;;16.75;82.75;101725.16;5053465;28;20025;-44
2021/09/12 07:37:56;;;;;;;83.65;30.55;;;;;;;16.76;83.02;101731.41;5045432;28;20029;-42
2021/09/12 07:40:22;;;;;;;91.93;30.35;;;;;;;16.91;82.74;101728.59;5038477;28;20156;-42
2021/09/12 07:42:48;;;;;;;75.90;29.63;;;;;;;17.11;82.05;101729.50;5053287;28;20151;-42
2021/09/12 07:45:14;;;;;;;98.60;31.35;;;;;;;17.30;81.43;101727.91;5052361;28;20499;-42
2021/09/12 07:47:39;;;;;;;79.00;28.77;;;;;;;17.56;80.13;101732.56;5052107;28;20049;-42
2021/09/12 07:50:06;;;;;;;77.20;30.05;;;;;;;17.75;79.65;101731.75;5054105;28;20029;-42
2021/09/12 07:52:31;;;;;;;76.32;29.60;;;;;;;17.70;79.80;101736.16;5052533;28;20074;-42
2021/09/12 07:54:57;;;;;;;89.35;31.50;;;;;;;17.58;80.21;101741.34;5047910;28;20028;-42
2021/09/12 07:57:22;;;;;;;89.63;30.77;;;;;;;17.49;80.73;101746.16;5039422;28;20082;-43
2021/09/12 07:59:47;;;;;;;88.72;30.98;;;;;;;17.57;81.23;101750.56;5057184;28;20063;-42
2021/09/12 08:02:13;;;;;;;83.47;31.13;;;;;;;17.85;79.87;101752.31;5043330;28;20022;-42
2021/09/12 08:04:38;;;;;;;78.03;29.92;;;;;;;18.10;78.99;101747.94;5039123;28;20500;-42
2021/09/12 08:07:03;;;;;;;79.93;30.23;;;;;;;18.26;78.36;101745.84;5046047;28;20029;-42
2021/09/12 08:09:30;;;;;;;80.03;29.15;;;;;;;18.18;78.50;101750.44;5038228;28;20116;-43
2021/09/12 08:11:55;;;;;;;85.28;30.23;;;;;;;18.34;78.68;101748.34;5038993;28;20040;-42
2021/09/12 08:14:21;;;;;;;74.65;27.67;;;;;;;18.57;77.02;101746.00;5042695;28;20540;-42
2021/09/12 08:16:46;;;;;;;71.53;28.25;;;;;;;18.54;76.80;101751.03;5039395;28;20118;-42
2021/09/12 08:19:11;;;;;;;77.30;27.98;;;;;;;18.45;77.62;101761.31;5034821;28;20422;-42
2021/09/12 08:21:37;;;;;;;75.43;28.42;;;;;;;18.22;78.34;101761.78;5033586;28;20021;-42
2021/09/12 08:24:02;;;;;;;69.85;29.67;;;;;;;18.10;78.76;101763.44;5038141;28;20100;-43
2021/09/12 08:26:27;;;;;;;73.53;28.08;;;;;;;18.07;79.52;101769.31;5051780;28;20063;-43
2021/09/12 08:28:53;;;;;;;69.63;28.00;;;;;;;18.03;79.41;101768.03;5038923;28;20128;-43
2021/09/12 08:31:18;;;;;;;88.35;29.27;;;;;;;18.05;79.30;101766.78;5039140;28;20460;-42
2021/09/12 08:33:43;;;;;;;77.45;28.00;;;;;;;18.30;79.05;101766.16;5039634;28;20071;-42
2021/09/12 08:36:10;;;;;;;60.92;26.05;;;;;;;18.60;78.47;101775.56;5038951;28;20458;-42
2021/09/12 08:38:35;;;;;;;64.00;26.92;;;;;;;18.98;75.94;101774.84;5039490;28;21467;-42
2021/09/12 08:41:01;;;;;;;62.92;24.48;;;;;;;19.23;75.43;101774.16;5037921;28;20021;-42
2021/09/12 08:43:27;;;;;;;61.97;24.15;;;;;;;19.49;74.98;101778.63;5039395;28;20482;-42
2021/09/12 08:45:53;;;;;;;68.10;23.88;;;;;;;19.66;73.86;101776.22;5038020;28;20029;-43
2021/09/12 08:48:18;;;;;;;60.95;22.35;;;;;;;19.70;74.01;101775.59;5037273;28;20056;-41
2021/09/12 08:50:44;;;;;;;54.40;22.35;;;;;;;19.55;73.53;101771.47;5037569;28;20033;-42
2021/09/12 08:53:09;;;;;;;55.70;22.85;;;;;;;19.76;72.95;101779.34;5036706;28;20037;-42
2021/09/12 08:55:34;;;;;;;46.90;21.13;;;;;;;20.49;70.59;101786.97;5041876;28;20066;-43
2021/09/12 08:58:02;;;;;;;38.13;18.92;;;;;;;20.95;69.39;101790.28;5050967;28;20082;-43
2021/09/12 09:00:27;;;;;;;52.53;16.95;;;;;;;21.36;67.41;101786.84;5051529;28;20061;-43
2021/09/12 09:03:00;;;;;;;43.70;17.95;;;;;;;21.34;67.17;101786.22;5051094;28;20025;-43
2021/09/12 09:05:43;;;;;;;39.50;16.63;;;;;;;21.16;67.38;101787.09;5052047;28;20055;-43
2021/09/12 09:08:09;;;;;;;40.10;16.73;;;;;;;21.06;67.78;101792.25;5052209;28;20029;-43
2021/09/12 09:10:51;;;;;;;34.63;15.02;;;;;;;21.34;67.71;101796.34;5051193;28;20040;-43
2021/09/12 09:13:35;;;;;;;36.90;14.55;;;;;;;21.59;66.54;101783.41;5052655;28;20029;-43
2021/09/12 09:16:03;;;;;;;35.20;13.68;;;;;;;21.44;67.49;101782.97;5044482;28;20037;-42
2021/09/12 09:18:29;;;;;;;;;;;;;;;21.25;66.65;101791.19;5042512;28;20044;-43
2021/09/12 09:20:54;;;;;;;20.67;9.57;;;;;;;21.27;66.08;101791.81;5039612;28;19913;-43
2021/09/12 09:23:20;;;;;;;21.35;9.52;;;;;;;21.07;67.10;101791.22;5046705;28;20017;-43
2021/09/12 09:25:46;;;;;;;13.85;7.88;;;;;;;20.83;66.80;101791.06;5032468;28;20037;-43
2021/09/12 09:28:12;;;;;;;17.13;7.00;;;;;;;20.75;67.16;101787.78;5031473;28;20080;-42
2021/09/12 09:30:47;;;;;;;10.37;6.07;;;;;;;20.65;68.18;101795.69;5044502;28;20040;-42
2021/09/12 09:33:29;;;;;;;10.20;5.57;;;;;;;20.54;67.99;101786.31;5050706;28;20040;-43
2021/09/12 09:36:06;;;;;;;13.43;5.25;;;;;;;20.69;67.73;101797.72;5031302;28;20397;-42
2021/09/12 09:38:37;;;;;;;12.13;5.25;;;;;;;20.87;66.79;101796.06;5033298;28;20036;-42
2021/09/12 09:41:11;;;;;;;7.53;4.70;;;;;;;20.81;68.08;101798.66;5039489;28;20032;-43
2021/09/12 09:43:50;;;;;;;12.45;4.20;;;;;;;20.98;66.53;101800.78;5046491;28;20026;-43
2021/09/12 09:46:29;;;;;;;13.65;3.95;;;;;;;20.93;66.02;101795.16;5053253;28;20029;-43
2021/09/12 09:48:55;;;;;;;5.95;3.50;;;;;;;20.94;65.54;101800.41;5036468;28;20045;-42
2021/09/12 09:51:22;;;;;;;7.38;3.67;;;;;;;20.87;66.41;101804.28;5031796;28;20025;-42
2021/09/12 09:53:47;;;;;;;5.28;3.65;;;;;;;20.82;65.68;101807.69;5030906;28;20488;-43
2021/09/12 09:56:12;;;;;;;5.68;3.03;;;;;;;20.97;65.60;101802.69;5031599;28;20048;-42
2021/09/12 09:58:38;;;;;;;9.27;2.70;;;;;;;21.23;65.09;101815.22;5030668;28;20032;-42
2021/09/12 10:01:03;;;;;;;7.05;2.88;;;;;;;21.41;63.27;101805.34;5031942;28;20029;-43
2021/09/12 10:03:29;;;;;;;4.47;2.58;;;;;;;21.56;62.15;101799.44;5031955;28;20477;-42
2021/09/12 10:05:55;;;;;;;5.20;2.28;;;;;;;21.83;61.76;101799.94;5032128;28;20103;-42
2021/09/12 10:08:22;;;;;;;4.78;1.75;;;;;;;22.07;59.82;101801.66;5014170;28;20068;-42
2021/09/12 10:10:48;;;;;;;10.10;2.42;;;;;;;22.04;60.88;101796.63;5034947;28;20203;-43
2021/09/12 10:13:14;;;;;;;5.25;1.90;;;;;;;22.18;59.94;101796.41;5051920;28;20186;-42
2021/09/12 10:15:40;;;;;;;7.97;1.90;;;;;;;22.07;61.29;101809.03;5051520;28;20480;-43
2021/09/12 10:18:06;;;;;;;5.07;1.65;;;;;;;22.29;60.23;101809.34;5051999;28;20115;-43
2021/09/12 10:20:33;;;;;;;4.53;1.70;;;;;;;22.31;60.61;101816.25;5050653;28;20369;-43
2021/09/12 10:23:04;;;;;;;5.00;1.85;;;;;;;22.24;60.33;101810.03;5051822;28;20021;-43
2021/09/12 10:25:31;;;;;;;2.60;1.60;;;;;;;22.37;59.43;101808.97;5051731;28;20025;-43
2021/09/12 10:27:56;;;;;;;4.78;1.80;;;;;;;22.48;59.21;101810.88;5051606;28;20029;-43
2021/09/12 10:30:38;;;;;;;5.00;1.40;;;;;;;22.37;58.02;101800.75;5054862;28;20147;-43
2021/09/12 10:33:06;;;;;;;5.25;1.40;;;;;;;22.49;58.35;101798.03;5055664;28;20765;-43
2021/09/12 10:35:52;;;;;;;9.50;2.08;;;;;;;22.58;57.64;101808.38;5055522;28;20036;-43
2021/09/12 10:38:36;;;;;;;6.63;2.25;;;;;;;22.69;56.55;101809.47;5050655;28;20025;-42
2021/09/12 10:41:01;;;;;;;7.05;1.70;;;;;;;22.65;54.64;101810.19;5046416;28;20037;-42
2021/09/12 10:43:27;;;;;;;6.63;1.60;;;;;;;22.60;55.62;101807.34;5055240;28;20115;-42
2021/09/12 10:46:05;;;;;;;4.10;1.55;;;;;;;22.72;54.85;101800.78;5055357;28;20370;-42
2021/09/12 10:48:45;;;;;;;;;;;;;;;22.62;55.36;101797.78;5055061;28;20057;-43
2021/09/12 10:51:10;;;;;;;2.90;1.58;;;;;;;22.47;56.43;101795.50;5055072;28;20284;-44
2021/09/12 10:53:45;;;;;;;15.55;2.35;;;;;;;22.52;57.21;101803.88;5038710;28;20120;-43
2021/09/12 10:56:11;;;;;;;3.88;1.58;;;;;;;22.56;55.33;101807.81;5035246;28;20052;-43
2021/09/12 10:58:36;;;;;;;8.07;1.80;;;;;;;22.70;54.89;101804.81;5041249;28;20477;-43
2021/09/12 11:01:03;;;;;;;4.28;1.88;;;;;;;22.65;56.09;101804.72;5046714;28;20043;-43
2021/09/12 11:03:29;;;;;;;5.18;2.30;;;;;;;22.59;55.75;101809.22;5055151;28;20429;-43
2021/09/12 11:05:55;;;;;;;7.95;1.83;;;;;;;22.63;56.48;101809.59;5050788;28;20017;-44
2021/09/12 11:08:40;;;;;;;4.43;1.58;;;;;;;23.23;54.29;101814.78;5040909;28;20033;-43
2021/09/12 11:11:07;;;;;;;6.38;1.60;;;;;;;23.56;52.81;101808.56;5050278;28;20041;-42